North Spring Valley, Nevada Weather observations

Data are for 10 minute period ending at time listed.
 Day   Time   Solar   Ave.   Ave.  Ave.  Vector  Max.   Baro.   Total    
  of    of     Rad.   Air    Rel.  Wind   Wind   Wind  Press.  Precip.   
Year   Day            Temp.  Hum.  Speed  Dir.   Gust                    
2017   (PST)  Kw/m2    F      %     mph   deg.    mph    mb.     in.     
-------------------------------------------------------------------------
 177   10:20   1.00   86.0    16    6.4   159    12.0   828.8    0.00 
 177   10:30   1.01   86.6    16    8.2   146    12.9   828.6    0.00 
 177   10:40   1.03   88.6    14   12.3   163    19.1   828.5    0.00 
 177   10:50   1.05   89.8    13   12.0   163    18.9   828.3    0.00 
 177   11:00   1.09   90.4    13   14.1   159    20.6   828.2    0.00 
 177   11:10   0.96   90.0    14   14.5   148    20.9   828.0    0.00 
 177   11:20   0.90   89.6    14   14.9   147    26.0   827.9    0.00 
 177   11:30   0.51   90.1    13   16.2   159    24.2   827.7    0.00 
 177   11:40   1.17   91.6    12   16.7   156    30.3   827.6    0.00 
 177   11:50   1.12   91.5    12   17.9   157    27.9   827.5    0.00 
 177   12:00   1.12   91.8    12   17.4   158    24.4   827.4    0.00 
 177   12:10   1.10   91.6    12   17.5   152    27.8   827.2    0.00 
 177   12:20   1.09   91.7    12   18.0   158    30.4   827.2    0.00 
 177   12:30   1.09   92.1    12   18.4   161    30.5   827.1    0.00 
 177   12:40   0.92   92.3    11   16.3   158    24.8   827.0    0.00 
 177   12:50   0.98   91.6    12   17.5   158    25.4   826.9    0.00 
 177   13:00   1.04   93.0    11   14.2   163    24.5   826.7    0.00 
 177   13:10   1.03   93.3    10   18.6   168    29.8   826.6    0.00 
 177   13:20   1.02   93.1    11   13.9   157    23.0   826.5    0.00 
 177   13:30   0.84   93.4    10   16.2   172    29.6   826.5    0.00 
 177   13:40   0.97   92.7    10   16.4   162    30.2   826.3    0.00 
 177   13:50   0.94   94.0     8   15.1   192    24.6   826.2    0.00 
 177   14:00   0.92   95.0     8   15.6   198    27.4   826.1    0.00 
 177   14:10   0.90   94.2     9   17.6   166    25.6   825.9    0.00 
 177   14:20   0.88   93.7     9   16.7   169    25.6   825.9    0.00 
 177   14:30   0.86   95.0     8   14.1   187    22.5   825.8    0.00 
 177   14:40   0.83   93.5    10   15.8   162    22.9   825.6    0.00 
 177   14:50   0.65   94.3     8   12.9   192    18.7   825.5    0.00 
 177   15:00   0.10   91.0     9   13.2   167    22.7   825.4    0.00 
 177   15:10   0.61   91.0    10   15.7   159    23.5   825.2    0.00 
 177   15:20   0.10   89.3    10   13.8   164    19.9   825.1    0.00 
 177   15:30   0.24   89.8     9   13.8   172    20.6   824.9    0.00 
 177   15:40   0.24   90.0     9   13.1   172    19.6   824.8    0.00 
 177   15:50   0.31   89.0     9   15.0   166    22.6   824.7    0.00 
 177   16:00   0.63   91.3    10   15.3   164    23.1   824.6    0.00 
 177   16:10   0.53   91.2    10   16.2   162    25.5   824.5    0.00 
 177   16:20   0.33   91.8     9   16.0   169    23.0   824.4    0.00 
 177   16:30   0.47   91.4     9   16.9   164    24.0   824.3    0.00 
 177   16:40   0.38   90.7     9   15.8   168    24.5   824.2    0.00 
 177   16:50   0.18   91.2     9   15.3   171    22.6   824.1    0.00 
 177   17:00   0.36   91.9     7   15.3   186    24.2   824.1    0.00 
 177   17:10   0.33   91.6     8   12.3   193    26.2   824.1    0.00 
 177   17:20   0.30   91.0     7   11.5   216    20.2   824.2    0.00 
 177   17:30   0.26   91.8     7    8.5   209    14.2   824.1    0.00 
 177   17:40   0.23   90.7     7    9.0   218    13.7   824.0    0.00 
 177   17:50   0.20   89.7     8    7.6   234    12.8   824.1    0.00 
 177   18:00   0.17   89.0     7    8.7   216    14.8   824.1    0.00 
 177   18:10   0.14   89.6     7   11.1   217    23.8   824.1    0.00 
 177   18:20   0.08   86.6     9    6.8   230    11.6   824.0    0.00 
 177   18:30   0.02   84.9     9    7.2   217    10.6   824.0    0.00 
 177   18:40   0.02   85.3     8    7.9   194    12.6   824.0    0.00 
 177   18:50   0.01   84.4     8    7.7   187    12.6   823.9    0.00 
 177   19:00   0.01   83.5     8    7.6   196    10.8   823.8    0.00 
 177   19:10   0.01   82.9     8    7.6   203    11.3   823.7    0.00 
 177   19:20   0.00   82.5     9    6.2   210     8.6   823.5    0.00 
 177   19:30   0.00   80.7    10    6.2   216     8.6   823.5    0.00 
 177   19:40   0.00   81.5     9    7.4   214    12.9   823.4    0.00 
 177   19:50   0.00   82.0     9    7.8   214    16.3   823.4    0.00 
 177   20:00   0.00   81.9     9    8.2   214    13.4   823.6    0.00 
 177   20:10   0.00   82.7     8    9.7   222    19.1   823.7    0.00 
 177   20:20   0.00   82.2     9    7.9   228    13.0   823.9    0.00 
 177   20:30   0.00   80.0     9    7.7   232    14.2   824.1    0.00 
 177   20:40   0.00   80.9     9    7.7   261    13.2   824.3    0.00 
 177   20:50   0.00   82.1     9   11.1   275    19.6   824.5    0.00 
 177   21:00   0.00   80.2    12    6.5   280    10.7   824.7    0.00 
 177   21:10   0.00   78.1    14    5.3   276     7.3   824.8    0.00 
 177   21:20   0.00   77.4    17    5.4   276    10.0   824.8    0.00 
 177   21:30   0.00   79.4    19    8.5   300    16.4   824.8    0.00 
 177   21:40   0.00   78.3    20    4.9   314    10.0   824.9    0.00 
 177   21:50   0.00   77.8    21    5.4   315     8.3   824.9    0.00 
 177   22:00   0.00   77.1    22    5.7   312     8.8   825.1    0.00 
 177   22:10   0.00   76.5    23    5.7   321    12.3   825.1    0.00 
 177   22:20   0.00   76.9    22    4.7   335     8.0   825.2    0.00 
 177   22:30   0.00   72.0    22    4.7     1     8.0   825.3    0.00 
 177   22:40   0.00   68.7    25    4.1   326     6.1   825.5    0.00 
 177   22:50   0.00   69.6    20    3.1    39     6.4   825.6    0.00 
 177   23:00   0.00   70.5    16    2.3    36     5.1   825.7    0.00 
 177   23:10   0.00   67.5    22    4.4   261     6.4   825.7    0.00 
 177   23:20   0.00   65.8    22    4.0   257     6.3   825.7    0.00 
 177   23:30   0.00   69.6    19    2.5   229     4.2   825.8    0.00 
 177   23:40   0.00   68.4    19    3.6   198     6.6   825.8    0.00 
 177   23:50   0.00   69.1    18    2.1   215     3.9   825.8    0.00 
 178    0:00   0.00   68.1    16    4.1   193     5.9   825.8    0.00 
 178    0:10   0.00   68.3    14    3.7   171     6.4   825.9    0.00 
 178    0:20   0.00   67.3    16    2.6   236     6.0   825.9    0.00 
 178    0:30   0.00   68.4    15    1.8   155     4.5   826.0    0.00 
 178    0:40   0.00   66.7    19    3.1   113     6.1   826.0    0.00 
 178    0:50   0.00   66.3    18    4.7   186     7.1   825.8    0.00 
 178    1:00   0.00   69.3    18    5.0   184     9.3   825.9    0.00 
 178    1:10   0.00   67.4    20    4.5   190     7.2   825.9    0.00 
 178    1:20   0.00   67.3    18    2.9   158     5.7   825.9    0.00 
 178    1:30   0.00   66.6    18    3.6    86     7.7   825.8    0.00 
 178    1:40   0.00   65.0    24    3.4   278     6.4   825.9    0.00 
 178    1:50   0.00   66.3    25    2.6     9     6.6   825.9    0.00 
 178    2:00   0.00   65.4    26    2.6   156     5.8   826.0    0.00 
 178    2:10   0.00   67.9    20    2.2   142     5.7   826.1    0.00 
 178    2:20   0.00   64.5    22    5.3   175     6.8   826.3    0.00 
 178    2:30   0.00   66.3    22    3.4   145     7.9   826.2    0.00 
 178    2:40   0.00   64.4    26    4.1   232     6.1   826.1    0.00 
 178    2:50   0.00   62.1    28    3.3   229     6.5   826.0    0.00 
 178    3:00   0.00   66.7    22    4.7   147     6.4   826.1    0.00 
 178    3:10   0.00   63.4    28    3.0    73     8.0   826.3    0.00 
 178    3:20   0.00   65.6    24    3.3   116     8.0   826.3    0.00 
 178    3:30   0.00   66.1    24    3.3   169     7.8   826.3    0.00 
 178    3:40   0.00   61.6    29    4.0   174     9.2   826.4    0.00 
 178    3:50   0.00   62.2    26    4.6   169     6.2   826.5    0.00 
 178    4:00   0.00   63.2    24    4.0   157     7.1   826.5    0.00 
 178    4:10   0.00   64.6    22    2.9   168     6.6   826.7    0.00 
 178    4:20   0.01   65.7    22    3.6   198     6.1   826.8    0.00 
 178    4:30   0.01   65.1    22    3.1   186     4.5   826.8    0.00 
 178    4:40   0.03   64.8    23    3.0   232     4.7   826.8    0.00 
 178    4:50   0.04   65.8    23    0.9   305     3.1   826.8    0.00 
 178    5:00   0.07   65.1    26    0.9   335     2.9   826.9    0.00 
 178    5:10   0.09   65.1    26    1.4   282     3.9   827.0    0.00 
 178    5:20   0.12   68.1    22    2.4   178     4.4   827.0    0.00 
 178    5:30   0.15   69.3    21    1.8   143     5.5   827.0    0.00 
 178    5:40   0.18   69.5    25    1.4    81     5.2   827.1    0.00 
 178    5:50   0.22   69.1    28    1.6    84     3.6   827.1    0.00 
 178    6:00   0.25   68.5    35    1.7   304     2.7   827.1    0.00 
 178    6:10   0.21   69.7    32    0.9   270     2.2   827.2    0.00 
 178    6:20   0.32   71.4    30    1.8   345     3.9   827.2    0.00 
 178    6:30   0.35   71.4    28    2.9   115     5.0   827.3    0.00 
 178    6:40   0.39   69.2    29    3.8   138     5.1   827.3    0.00 
 178    6:50   0.42   69.1    28    2.9   145     4.4   827.2    0.00 
 178    7:00   0.46   71.6    27    2.0   139     3.3   827.2    0.00 
 178    7:10   0.49   72.8    24    2.6   138     5.0   827.2    0.00 
 178    7:20   0.53   72.6    23    4.2   140     6.1   827.1    0.00 
 178    7:30   0.56   73.8    22    3.4   155     5.3   827.1    0.00 
 178    7:40   0.59   74.6    22    3.7   132     5.8   827.0    0.00 
 178    7:50   0.63   75.6    20    3.1   139     5.0   826.9    0.00 
 178    8:00   0.66   76.9    20    2.4   131     4.8   826.8    0.00 
 178    8:10   0.68   78.1    18    2.6   148     6.9   826.7    0.00 
 178    8:20   0.71   80.3    16    0.7   168     3.4   826.7    0.00 
 178    8:30   0.74   80.9    16    1.0   142     3.3   826.6    0.00 
 178    8:40   0.77   80.3    15    1.8   253     3.4   826.6    0.00 
 178    8:50   0.80   80.0    17    2.1   260     5.1   826.6    0.00 
 178    9:00   0.82   80.0    19    2.3    46     6.6   826.6    0.00 
 178    9:10   0.84   79.2    20    4.7    51     7.2   826.6    0.00 
 178    9:20   0.87   79.0    21    4.8     8     8.0   826.5    0.00 
 178    9:30   0.89   80.0    18    2.9    47     7.9   826.5    0.00 
 178    9:40   0.91   80.1    18    3.2    52     6.9   826.5    0.00 
 178    9:50   0.94   82.0    15    0.4   160     2.0   826.5    0.00 
 178   10:00   0.95   83.0    16    1.0    53     6.2   826.4    0.00 
 178   10:10   0.97   81.7    16    2.9    14     5.8   826.5    0.00 

Return to North Spring Valley graphs page.


Western Regional Climate Center,wrcc@dri.edu